x

9444090 - Port Angeles, Wa (ptaw1) Weather Station

3:36 - Tue 27th Jun 2017 All times are PDT. -7 hours from GMT.

  • Wind
    6mph, 8mph gusts
  • Sea Temp 50°f
  • Air Temp 51°f
  • Sea Pressure 1016.4mb
  • 9444090 - Port Angeles, Wa
  • 9444090 - Port Angeles, Wa

More Historic Weather Station data

Upgrade to MSW Pro to gain access to the past 30 days of data for over 8000 Wavebouys and Weather Stations around the globe.

Join Pro

Comparision Forecast

View Surf forecast
   
mar. 06/27 3:36 6 8 mph 1016.4mb 50f 51f
3:30 8 10 mph 1016.4mb 50f 51f
3:24 6 8 mph 1016.4mb 50f 52f
3:18 5 7 mph 1016.3mb 50f 52f
3:12 3 6 mph 1016.4mb 50f 53f
3:06 3 6 mph 1016.3mb 50f 53f
3:00 2 7 mph 1016.2mb 50f 53f
2:36 2 8 mph 1015.9mb 50f 53f
2:30 3 7 mph 1015.9mb 50f 53f
2:24 1 5 mph 1015.9mb 50f 52f
2:18 5 7 mph 1015.8mb 50f 53f
2:12 3 6 mph 1015.8mb 50f 53f
2:06 3 8 mph 1015.8mb 50f 53f
2:00 5 9 mph 1015.8mb 50f 53f
1:36 6 10 mph 1015.7mb 50f 53f
1:30 6 8 mph 1015.7mb 50f 53f
1:24 6 8 mph 1015.8mb 50f 53f
1:18 7 9 mph 1015.8mb 50f 53f
1:12 5 10 mph 1015.8mb 50f 53f
1:06 6 10 mph 1015.8mb 50f 53f
1:00 3 8 mph 1015.7mb 50f 53f
12:36 3 9 mph 1015.6mb 50f 54f
12:30 5 10 mph 1015.5mb 51f 54f
12:24 6 9 mph 1015.5mb 51f 53f
12:18 7 11 mph 1015.6mb 51f 54f
12:12 5 9 mph 1015.5mb 51f 54f
12:06 6 9 mph 1015.5mb 51f 54f
12:00 6 10 mph 1015.4mb 51f 54f
lun. 06/26 11:36 2 9 mph 1015.6mb 51f 54f
11:30 6 8 mph 1015.6mb 51f 54f
11:24 7 11 mph 1015.6mb 51f 54f
11:18 6 13 mph 1015.6mb 51f 55f
11:12 8 13 mph 1015.5mb 51f 55f
11:06 6 11 mph 1015.5mb 51f 55f
11:00 9 13 mph 1015.6mb 51f 54f
10:36 9 13 mph 1015.6mb 51f 55f
10:30 10 13 mph 1015.6mb 51f 55f
10:24 7 10 mph 1015.5mb 51f 55f
10:18 6 7 mph 1015.7mb 51f 55f
10:12 5 8 mph 1015.7mb 51f 55f
10:06 3 9 mph 1015.6mb 51f 55f
10:00 6 13 mph 1015.4mb 51f 56f
9:36 15 21 mph 1015.3mb 51f 56f
9:30 15 18 mph 1015.2mb 51f 56f
9:24 9 14 mph 1015.4mb 51f 56f
9:18 9 16 mph 1015.4mb 51f 56f
9:12 11 16 mph 1015.3mb 51f 55f
9:06 13 16 mph 1015.2mb 51f 55f
9:00 11 16 mph 1015.1mb 51f 56f
8:36 10 15 mph 1014.8mb 51f 58f
8:30 14 16 mph 1014.8mb 51f 58f
8:24 13 17 mph 1014.8mb 51f 58f
8:18 10 20 mph 1014.7mb 51f 59f
8:12 9 18 mph 1014.7mb 51f 59f
8:06 14 20 mph 1014.7mb 51f 59f
8:00 10 18 mph 1014.8mb 51f 60f
7:36 7 17 mph 1014.5mb 51f 60f
7:30 14 18 mph 1014.4mb 51f 58f
7:24 15 20 mph 1014.5mb 51f 57f
7:18 14 21 mph 1014.5mb 51f 57f
7:12 14 22 mph 1014.4mb 51f 58f
7:06 17 21 mph 1014.2mb 51f 57f
7:00 20 24 mph 1014mb 51f 57f
6:36 22 29 mph 1013.9mb 50f 57f
6:30 24 29 mph 1013.9mb 50f 57f
6:24 24 30 mph 1014mb 51f 57f
6:18 23 28 mph 1014.1mb 50f 57f
6:12 23 28 mph 1014.1mb 50f 57f
6:06 22 26 mph 1014.2mb 51f 57f
6:00 21 26 mph 1014.2mb 51f 57f
5:36 21 25 mph 1014.1mb 51f 56f
5:30 20 25 mph 1014.2mb 51f 56f
5:24 23 30 mph 1014.1mb 51f 56f
5:18 22 26 mph 1014.1mb 51f 56f
5:12 22 28 mph 1014.1mb 51f 56f
5:06 22 28 mph 1014.2mb 51f 56f
5:00 22 24 mph 1014.2mb 51f 57f
4:36 25 29 mph 1014.2mb 51f 57f
4:30 22 25 mph 1014.1mb 51f 58f
4:24 20 30 mph 1014.1mb 51f 58f
4:18 25 31 mph 1014.1mb 51f 58f
4:12 21 25 mph 1014.2mb 51f 58f
4:06 21 28 mph 1014.2mb 51f 59f
4:00 23 28 mph 1014.2mb 51f 58f
3:36 17 24 mph 1014.3mb 51f 59f
3:30 20 25 mph 1014.3mb 51f 58f
3:24 14 23 mph 1014.4mb 51f 58f
3:18 17 28 mph 1014.4mb 51f 56f
3:12 23 26 mph 1014.4mb 50f 56f
3:06 22 26 mph 1014.4mb 50f 56f
3:00 22 28 mph 1014.4mb 50f 56f
2:36 22 26 mph 1014.5mb 50f 56f
2:30 18 24 mph 1014.6mb 50f 55f
2:24 21 25 mph 1014.6mb 50f 55f
2:18 20 26 mph 1014.6mb 50f 56f
2:12 20 24 mph 1014.5mb 50f 56f
2:06 21 25 mph 1014.5mb 50f 56f
2:00 20 24 mph 1014.4mb 50f 55f
1:36 17 24 mph 1014.7mb 50f 55f
1:30 18 25 mph 1014.6mb 50f 55f
1:24 18 23 mph 1014.6mb 50f 55f
1:18 21 28 mph 1014.6mb 50f 55f
1:12 20 25 mph 1014.6mb 50f 55f
1:06 17 25 mph 1014.5mb 50f 55f
1:00 20 29 mph 1014.7mb 50f 55f
12:36 16 22 mph 1014.7mb 50f 54f
12:30 16 21 mph 1014.7mb 50f 54f
12:24 16 23 mph 1014.7mb 50f 54f
12:18 17 22 mph 1014.6mb 50f 54f
12:12 18 23 mph 1014.6mb 50f 54f
12:06 16 23 mph 1014.7mb 50f 54f
12:00 16 24 mph 1014.5mb 50f 54f
11:36 20 24 mph 1014.3mb 50f 53f
11:30 16 22 mph 1014.2mb 50f 53f
11:24 18 24 mph 1014.1mb 50f 53f
11:18 18 23 mph 1014mb 50f 53f
11:12 18 23 mph 1014.2mb 50f 53f
11:06 15 22 mph 1014.1mb 50f 53f
11:00 17 23 mph 1014.1mb 50f 53f
10:36 16 22 mph 1014.3mb 50f 53f
10:30 16 21 mph 1014.2mb 50f 53f
10:24 16 22 mph 1014.1mb 50f 53f
10:18 17 22 mph 1014mb 50f 53f
10:12 16 23 mph 1014.1mb 50f 53f
10:06 17 22 mph 1014mb 50f 53f
10:00 16 22 mph 1013.9mb 50f 53f
9:36 17 22 mph 1014mb 49f 54f
9:30 17 22 mph 1014.1mb 49f 54f
9:24 16 21 mph 1014mb 49f 54f
9:18 16 18 mph 1014mb 49f 54f
9:12 15 20 mph 1014.1mb 49f 54f
9:06 14 20 mph 1013.9mb 49f 54f
9:00 14 17 mph 1013.9mb 49f 54f
8:36 14 17 mph 1013.9mb 49f 54f
8:30 15 18 mph 1013.8mb 49f 54f
8:24 15 20 mph 1013.9mb 49f 54f
8:18 15 18 mph 1013.8mb 49f 54f
8:12 15 21 mph 1013.8mb 49f 54f
8:06 14 22 mph 1013.7mb 49f 54f
8:00 15 17 mph 1013.8mb 49f 54f
7:36 13 16 mph 1013.9mb 49f 54f
7:30 13 15 mph 1013.9mb 49f 54f
7:24 14 16 mph 1013.9mb 49f 54f
7:18 14 16 mph 1013.8mb 49f 54f
7:12 11 15 mph 1013.9mb 49f 54f
7:06 8 13 mph 1013.8mb 49f 55f
7:00 9 11 mph 1014mb 49f 55f
6:36 8 14 mph 1014.1mb 49f 55f
6:30 11 15 mph 1013.9mb 49f 55f
6:24 10 16 mph 1013.9mb 49f 55f
6:18 10 16 mph 1013.9mb 49f 56f
6:12 13 17 mph 1014mb 49f 56f
6:06 10 13 mph 1014.1mb 49f 56f
6:00 7 11 mph 1014mb 49f 55f
5:36 13 16 mph 1013.6mb 49f 55f
5:30 13 15 mph 1013.7mb 49f 55f
5:24 8 11 mph 1013.8mb 49f 55f
5:18 8 11 mph 1013.8mb 49f 55f
5:12 10 16 mph 1013.8mb 49f 55f
5:06 14 17 mph 1013.8mb 49f 56f
5:00 8 11 mph 1013.7mb 49f 56f
4:54 5 13 mph 1013.7mb 49f 56f
4:48 13 16 mph 1013.7mb 49f 55f
4:36 13 20 mph 1013.8mb 49f 55f
4:30 13 20 mph 1013.6mb 49f 55f
4:24 13 15 mph 1013.5mb 49f 55f
4:18 13 15 mph 1013.4mb 49f 56f
4:12 11 18 mph 1013.4mb 49f 56f
4:06 15 21 mph 1013.3mb 49f 56f
4:00 16 20 mph 1013.2mb 49f 55f
3:54 10 14 mph 1013.3mb 49f 56f
3:48 7 10 mph 1013.2mb 49f 56f
3:36 14 18 mph 1013.2mb 49f 57f
3:30 14 17 mph 1013.1mb 49f 57f
3:24 9 14 mph 1013.1mb 49f 57f
3:18 8 13 mph 1013.1mb 49f 57f
3:12 10 17 mph 1012.9mb 49f 56f
3:06 14 20 mph 1013mb 49f 57f
3:00 16 23 mph 1012.9mb 49f 58f
2:54 9 14 mph 1012.7mb 49f 58f
2:48 6 17 mph 1012.7mb 49f 58f
2:36 13 18 mph 1012.4mb 49f 57f
2:30 13 16 mph 1012.4mb 49f 57f
2:24 11 20 mph 1012.2mb 49f 58f
2:18 14 20 mph 1012.3mb 49f 58f
2:12 9 14 mph 1012.1mb 49f 57f
2:06 8 11 mph 1012.1mb 49f 57f
2:00 8 11 mph 1012.1mb 49f 56f
1:54 9 15 mph 1011.9mb 49f 56f
1:48 13 21 mph 1012mb 49f 57f
1:36 9 15 mph 1012mb 49f 57f
1:30 13 15 mph 1012mb 49f 57f
1:24 14 18 mph 1012mb 49f 56f
1:18 11 16 mph 1011.9mb 49f 56f
1:12 13 17 mph 1011.9mb 49f 57f
1:06 13 16 mph 1011.7mb 49f 56f
1:00 8 14 mph 1011.5mb 49f 56f
12:54 9 14 mph 1011.6mb 49f 56f
12:48 11 17 mph 1011.5mb 49f 56f
12:36 13 18 mph 1011.2mb 49f 57f
12:30 13 17 mph 1011.4mb 49f 57f
12:24 10 14 mph 1011.2mb 49f 57f
12:18 14 17 mph 1011.3mb 50f 56f
12:12 11 20 mph 1011.1mb 50f 55f
12:06 21 22 mph 1011.1mb 50f 56f
12:00 14 17 mph 1011.1mb 50f 56f
dim. 06/25 11:54 11 16 mph 1011.2mb 50f 57f
11:48 14 18 mph 1011.2mb 50f 57f
11:36 14 18 mph 1011.2mb 50f 57f
11:30 11 16 mph 1011.2mb 50f 58f
11:24 15 18 mph 1011.1mb 50f 57f
11:18 18 21 mph 1011.1mb 50f 58f
11:12 17 22 mph 1011.3mb 50f 58f
11:06 14 17 mph 1011.5mb 50f 58f
11:00 15 16 mph 1011.2mb 50f 58f
10:54 14 23 mph 1011.1mb 50f 58f
10:48 18 28 mph 1011.5mb 50f 59f
10:36 18 23 mph 1011.4mb 50f 59f
10:30 18 23 mph 1011.4mb 50f 58f
10:24 17 22 mph 1011.4mb 50f 60f
10:18 14 20 mph 1011.5mb 50f 57f
10:12 20 23 mph 1011.2mb 50f 57f
10:06 16 20 mph 1011.2mb 50f 58f
10:00 15 21 mph 1011.3mb 50f 58f
9:54 11 18 mph 1011.3mb 50f 58f
9:36 17 20 mph 1011.2mb 50f 59f
9:30 16 18 mph 1011.1mb 50f 58f
9:24 15 22 mph 1011.2mb 50f 59f
9:18 15 21 mph 1011.1mb 50f 59f
9:12 17 22 mph 1011.1mb 50f 59f
9:06 18 22 mph 1011.1mb 50f 60f
9:00 14 17 mph 1011.1mb 50f 60f
8:54 14 16 mph 1011.1mb 50f 61f
8:36 17 20 mph 1011.1mb 50f 60f
8:30 16 21 mph 1011mb 50f 60f
8:24 14 18 mph 1011.1mb 50f 60f
8:18 17 24 mph 1011.1mb 50f 59f
8:12 18 22 mph 1011.2mb 50f 60f
8:06 20 24 mph 1011.1mb 50f 60f
8:00 20 23 mph 1011mb 50f 60f
7:54 16 21 mph 1011mb 50f 62f
7:48 16 18 mph 1011.1mb 50f 62f
7:36 13 15 mph 1011.2mb 50f 62f
7:30 16 20 mph 1011.1mb 50f 62f
7:24 18 21 mph 1011.1mb 50f 62f
7:18 21 24 mph 1011.1mb 50f 61f
7:12 22 23 mph 1011.1mb 50f 61f
7:06 22 24 mph 1011mb 50f 61f
7:00 21 24 mph 1010.9mb 50f 59f
6:54 16 20 mph 1010.9mb 50f 62f
6:48 18 21 mph 1010.9mb 50f 61f
6:36 17 20 mph 1010.9mb 50f 62f
6:30 16 18 mph 1010.9mb 50f 61f
6:24 17 18 mph 1011mb 50f 63f
6:18 15 20 mph 1011.1mb 50f 61f
6:12 16 20 mph 1011.2mb 50f -
6:06 10 18 mph 1011.2mb 50f -
6:00 18 20 mph 1011.3mb 50f -
5:54 18 21 mph 1011.3mb 50f -
5:48 16 18 mph 1011.5mb 50f -
5:36 16 18 mph 1011.5mb 50f -
5:30 17 20 mph 1011.6mb 50f -
5:24 17 18 mph 1011.5mb 50f -
5:18 17 20 mph 1011.6mb 50f -
5:12 18 22 mph 1011.7mb 50f -
5:06 20 22 mph 1011.7mb 50f -
5:00 21 23 mph 1011.7mb 50f -
4:54 20 22 mph 1011.8mb 50f -
4:48 21 23 mph 1011.7mb 50f -
4:36 20 23 mph 1011.7mb 50f -
4:30 21 23 mph 1011.7mb 50f -
4:24 18 22 mph 1011.8mb 50f -
4:18 5 5 mph 1011.7mb 50f 76f
4:12 2 2 mph 1011.6mb 50f 80f
4:06 1 2 mph 1011.7mb 50f 82f
4:00 1 1 mph 1011.7mb 51f 81f
3:54 1 2 mph 1011.7mb 51f 80f
3:48 2 2 mph 1011.7mb 51f 80f
3:36 1 3 mph 1011.8mb 51f 79f
3:30 3 3 mph 1011.8mb 51f 77f
3:24 2 3 mph 1011.9mb 51f 77f
3:18 2 2 mph 1012mb 51f 76f
3:12 2 3 mph 1012mb 51f 78f
3:06 2 3 mph 1012mb 51f 77f
3:00 3 3 mph 1012mb 51f 77f
2:54 3 5 mph 1012.1mb 51f 78f
2:48 3 5 mph 1012.2mb 51f 75f
2:36 5 5 mph 1012.2mb 51f 75f
2:30 5 6 mph 1012.3mb 51f 75f
2:24 6 6 mph 1012.3mb 51f 74f
2:18 6 6 mph 1012.3mb 51f 74f
2:12 6 7 mph 1012.4mb 51f 74f
2:06 6 6 mph 1012.4mb 51f 74f
2:00 6 6 mph 1012.5mb 51f 76f
1:54 6 6 mph 1012.5mb 51f 74f
1:48 6 6 mph 1012.6mb 51f 74f
1:36 5 5 mph 1012.7mb 51f 73f
1:30 3 6 mph 1012.7mb 51f 76f
1:24 5 6 mph 1012.8mb 50f 77f
1:18 3 6 mph 1012.9mb 50f 76f
1:12 5 6 mph 1013mb 50f 75f
1:06 5 6 mph 1013mb 50f 74f
1:00 5 6 mph 1013mb 50f 75f
12:54 5 5 mph 1013.1mb 50f 75f
12:48 3 3 mph 1013.2mb 50f 75f
12:36 3 5 mph 1013.3mb 50f 74f
12:30 5 6 mph 1013.3mb 50f 74f
12:24 6 6 mph 1013.3mb 50f 73f
12:18 6 6 mph 1013.4mb 50f 74f
12:12 6 6 mph 1013.4mb 50f 72f
12:06 6 6 mph 1013.4mb 50f 74f
12:00 6 6 mph 1013.5mb 50f 73f
11:54 5 6 mph 1013.5mb 50f 73f
11:48 6 6 mph 1013.5mb 50f 73f
11:36 5 6 mph 1013.6mb 50f 73f
11:30 5 5 mph 1013.5mb 50f 73f
11:24 5 5 mph 1013.6mb 50f 72f
11:18 5 5 mph 1013.6mb 50f 73f
11:12 3 5 mph 1013.7mb 50f 73f
11:06 3 3 mph 1013.7mb 50f 73f
11:00 3 3 mph 1013.6mb 50f 72f
10:54 2 3 mph 1013.7mb 50f 71f
10:36 2 3 mph 1013.8mb 50f 71f
10:30 3 3 mph 1013.7mb 50f 71f
10:24 3 3 mph 1013.8mb 50f 72f
10:18 3 3 mph 1013.8mb 50f 71f
10:12 2 3 mph 1013.9mb 50f 71f
10:06 2 3 mph 1014mb 50f 71f
10:00  -  3 mph 1014mb 50f 72f
9:54 2 2 mph 1014.1mb 50f 71f
9:48 1 2 mph 1014.1mb 50f 72f
9:36 2 3 mph 1014.1mb 50f 69f
9:30 3 3 mph 1014.1mb 50f 70f
9:24 3 5 mph 1014.2mb 50f 69f
9:18 3 6 mph 1014.3mb 50f 70f
9:12 3 5 mph 1014.3mb 50f 69f
9:06 3 3 mph 1014.4mb 50f 68f
9:00 3 5 mph 1014.4mb 50f 68f
8:54 3 5 mph 1014.4mb 50f 69f
8:48 3 5 mph 1014.4mb 50f 65f
8:36 5 6 mph 1014.5mb 50f 66f
8:30 5 5 mph 1014.6mb 50f 66f
8:24 5 5 mph 1014.6mb 50f 66f
8:18 5 6 mph 1014.6mb 50f 64f
8:12 3 6 mph 1014.6mb 50f 64f
8:06 5 7 mph 1014.6mb 50f 67f
8:00 2 5 mph 1014.4mb 50f 70f
7:54 5 5 mph 1014.4mb 50f 70f
7:48 5 6 mph 1014.4mb 50f 69f
7:36 5 6 mph 1014.4mb 50f 65f
7:30 3 5 mph 1014.5mb 50f 65f
7:24 5 6 mph 1014.5mb 50f 63f
7:18 3 7 mph 1014.5mb 50f 65f
7:12 3 3 mph 1014.5mb 50f 65f
7:06 2 3 mph 1014.5mb 50f 67f
7:00 3 5 mph 1014.5mb 50f 66f
6:54 3 5 mph 1014.5mb 50f 65f
6:48 2 5 mph 1014.6mb 50f 63f
6:36 3 5 mph 1014.6mb 50f 60f
6:30 2 3 mph 1014.6mb 50f 60f
6:24 2 5 mph 1014.7mb 50f 61f
6:18  -  7 mph 1014.6mb 50f 62f
6:12 3 6 mph 1014.7mb 50f 61f
6:06 6 8 mph 1014.7mb 50f 62f
6:00 2 5 mph 1014.7mb 50f 61f
5:54 5 6 mph 1014.6mb 50f 61f
5:48 5 6 mph 1014.6mb 50f 60f
5:36 2 5 mph 1014.5mb 49f 59f
5:30 3 6 mph 1014.5mb 50f 57f
5:24 5 6 mph 1014.5mb 50f 58f
5:18 2 3 mph 1014.6mb 50f 58f
5:12 1 2 mph 1014.5mb 50f 58f
5:06  -  2 mph 1014.6mb 49f 57f
5:00 2 3 mph 1014.6mb 49f 57f
4:54 2 3 mph 1014.6mb 49f 57f
4:48 2 3 mph 1014.6mb 49f 57f
4:36 2 5 mph 1014.6mb 49f 59f
4:30 3 6 mph 1014.5mb 49f 59f
4:24  -  7 mph 1014.5mb 49f 59f
4:18 5 9 mph 1014.5mb 49f 59f
4:12 5 8 mph 1014.5mb 49f 58f
4:06 5 6 mph 1014.5mb 49f 58f
4:00 3 5 mph 1014.5mb 49f 58f
3:36 3 3 mph 1014.6mb 50f 58f
3:30 1 2 mph 1014.6mb 50f 58f
3:24 1 3 mph 1014.7mb 50f 58f
3:18 2 5 mph 1014.7mb 50f 59f
3:12 1 2 mph 1014.8mb 50f 58f
3:06 2 3 mph 1014.8mb 50f 58f
3:00 2 2 mph 1014.8mb 50f 58f
2:36 2 3 mph 1015mb 50f 58f
2:30 2 2 mph 1015mb 50f 58f
2:24 1 2 mph 1015mb 49f 58f
2:18  -  2 mph 1015mb 49f 58f
2:12 2 3 mph 1015mb 49f 57f
2:06 2 2 mph 1015mb 49f 58f
2:00 1 2 mph 1015mb 49f 58f
1:54 1 2 mph 1015mb 49f 58f
1:48  -  1 mph 1015mb 49f 59f
1:36  -  2 mph 1015.1mb 49f 59f
1:30 2 2 mph 1015.1mb 49f 59f
1:24  -  1 mph 1015.1mb 49f 58f
1:18 2 3 mph 1015.2mb 49f 58f
1:12 1 3 mph 1015.2mb 49f 60f
1:06  -  1 mph 1015.2mb 49f 61f
1:00  -  2 mph 1015.2mb 49f 60f
12:54 1 2 mph 1015.2mb 49f 60f
12:48  -  1 mph 1015.3mb 49f 59f
12:36  -  1 mph 1015.4mb 49f 58f
12:30 1 2 mph 1015.4mb 49f 58f
12:24 1 2 mph 1015.5mb 49f 59f
12:18 1 2 mph 1015.4mb 49f 59f
12:12 2 2 mph 1015.4mb 49f 59f
12:06 1 2 mph 1015.4mb 49f 60f
12:00 2 3 mph 1015.5mb 49f 60f
sam. 06/24 11:54 2 5 mph 1015.5mb 49f 59f
11:48  -  2 mph 1015.5mb 49f 60f
11:36 2 6 mph 1015.6mb 49f 59f
11:30 6 7 mph 1015.6mb 49f 66f
11:24 5 6 mph 1015.5mb 49f 68f
11:18 6 6 mph 1015.6mb 49f 69f
11:12 5 6 mph 1015.7mb 49f 68f
11:06 6 7 mph 1015.7mb 49f 69f
11:00 5 6 mph 1015.7mb 49f 69f
10:54 6 6 mph 1015.7mb 49f 69f
10:48 6 6 mph 1015.8mb 49f 69f
10:36 3 5 mph 1015.8mb 49f 70f
10:30 5 6 mph 1015.9mb 49f 70f
10:24 5 7 mph 1015.9mb 49f 71f
10:18 5 7 mph 1016mb 50f 71f
10:12 5 7 mph 1016mb 50f 71f
10:06 5 6 mph 1016mb 50f 71f
10:00 3 6 mph 1016mb 50f 72f
9:54 6 9 mph 1016mb 50f 72f
9:48 9 11 mph 1016mb 50f 72f
9:36 9 10 mph 1016.1mb 50f 72f
9:30 8 10 mph 1016.1mb 50f 72f
9:24 6 7 mph 1016mb 50f 72f
9:18 3 6 mph 1016mb 50f 73f
9:12 5 6 mph 1016mb 50f 74f
9:06 3 5 mph 1016mb 50f 76f
9:00 2 3 mph 1016.1mb 50f 78f
8:54 1 2 mph 1016.1mb 50f 79f
8:48 1 2 mph 1016.1mb 50f 80f
8:36 2 3 mph 1016.1mb 50f 79f
8:30  -  3 mph 1016mb 50f 78f
8:24 3 3 mph 1016.1mb 50f 77f
8:18 3 3 mph 1016.1mb 50f 78f
8:12 2 2 mph 1016.2mb 50f 78f
8:06 2 2 mph 1016.3mb 50f 77f
8:00 3 3 mph 1016.3mb 50f 78f
7:54 3 3 mph 1016.4mb 50f 77f
7:48 3 5 mph 1016.4mb 50f 77f
7:36 5 5 mph 1016.5mb 50f 78f
7:30 3 3 mph 1016.5mb 50f 77f
7:24 3 5 mph 1016.6mb 50f 77f
7:18 3 3 mph 1016.7mb 50f 78f
7:12 3 5 mph 1016.7mb 50f 78f
7:06 5 5 mph 1016.7mb 50f 77f
7:00 5 5 mph 1016.8mb 50f 77f
6:54 3 3 mph 1016.9mb 50f 76f
6:48 3 3 mph 1017mb 50f 77f
6:36 3 5 mph 1017mb 50f 78f
6:30 5 5 mph 1017mb 50f 77f
6:24 5 5 mph 1017.1mb 50f 78f
6:18 3 3 mph 1017.2mb 50f 78f
6:12 3 3 mph 1017.2mb 50f 77f
6:06 3 3 mph 1017.3mb 50f 77f
6:00 3 3 mph 1017.4mb 50f 77f
5:54 3 5 mph 1017.5mb 50f 78f
5:48 3 5 mph 1017.6mb 50f 78f
5:36 5 5 mph 1017.8mb 50f 75f
5:30 5 5 mph 1017.9mb 50f 74f
5:24 5 5 mph 1017.9mb 50f 75f
5:18 3 5 mph 1018.1mb 50f 74f
5:12 3 5 mph 1018.1mb 50f 75f
5:06 5 5 mph 1018.2mb 50f 73f
5:00 5 5 mph 1018.3mb 50f 73f
4:54 5 6 mph 1018.4mb 50f 72f
4:48 5 5 mph 1018.4mb 50f 73f
4:36 5 5 mph 1018.6mb 50f 73f
4:30 5 5 mph 1018.6mb 51f 74f
4:24 5 5 mph 1018.7mb 51f 73f
4:18 5 6 mph 1018.7mb 51f 74f
4:12 5 6 mph 1018.8mb 51f 76f
4:06 5 5 mph 1018.9mb 51f 75f
4:00 5 5 mph 1019mb 51f 77f
3:54 5 5 mph 1019.1mb 51f 78f
3:48 5 6 mph 1019.1mb 51f 78f
3:36 5 5 mph 1019.2mb 51f 77f
3:30 5 6 mph 1019.3mb 51f 76f
3:24 6 6 mph 1019.3mb 51f 77f
3:18 5 6 mph 1019.4mb 51f 77f
3:12 5 6 mph 1019.4mb 51f 77f
3:06 5 5 mph 1019.5mb 51f 77f
3:00 5 5 mph 1019.7mb 51f 77f
2:54 3 5 mph 1019.7mb 52f 77f
2:48 3 5 mph 1019.8mb 52f 77f
2:36 3 5 mph 1020mb 52f 76f
2:30 3 5 mph 1020mb 52f 76f
2:24 5 5 mph 1020.1mb 52f 74f
2:18 5 5 mph 1020.2mb 52f 74f
2:12 5 5 mph 1020.2mb 52f 74f
2:06 5 5 mph 1020.3mb 52f 72f
2:00 5 5 mph 1020.4mb 52f 72f
1:54 3 5 mph 1020.4mb 52f 74f
1:48 5 5 mph 1020.4mb 52f 74f
1:36 5 6 mph 1020.5mb 52f 74f
1:30 5 6 mph 1020.6mb 52f 74f
1:24 6 6 mph 1020.6mb 52f 73f
1:18 6 7 mph 1020.7mb 52f 74f
1:12 6 6 mph 1020.8mb 52f 73f
1:06 6 6 mph 1020.8mb 52f 73f
1:00 6 6 mph 1020.8mb 51f 73f
12:54 6 7 mph 1020.9mb 52f 73f
12:48 6 6 mph 1020.9mb 52f 74f
12:36 5 5 mph 1021mb 52f 73f
12:30 5 5 mph 1021.1mb 52f 74f
12:24 5 5 mph 1021.1mb 52f 73f
12:18 5 5 mph 1021.1mb 52f 73f
12:12 5 6 mph 1021.2mb 52f 73f
12:06 6 6 mph 1021.3mb 52f 73f
12:00 5 6 mph 1021.3mb 52f 73f
11:54 5 6 mph 1021.3mb 52f 72f
11:48 5 5 mph 1021.4mb 52f 72f
11:36 5 6 mph 1021.4mb 53f 72f
11:30 6 6 mph 1021.5mb 53f 71f
11:24 5 6 mph 1021.5mb 53f 71f
11:18 5 6 mph 1021.6mb 53f 71f
11:12 3 5 mph 1021.6mb 53f 70f
11:06 2 3 mph 1021.6mb 53f 71f
11:00 2 2 mph 1021.5mb 53f 69f
10:54 1 2 mph 1021.6mb 53f 70f
10:48 2 2 mph 1021.6mb 53f 70f
10:36 1 5 mph 1021.6mb 52f 70f
10:30 2 5 mph 1021.6mb 52f 68f
10:24 3 6 mph 1021.6mb 52f 67f
10:18 6 6 mph 1021.6mb 51f 66f
10:12 5 6 mph 1021.6mb 51f 66f
10:06 5 6 mph 1021.6mb 50f 66f
10:00 3 5 mph 1021.6mb 50f 67f
9:54 3 3 mph 1021.7mb 50f 72f
9:48 2 5 mph 1021.7mb 50f 70f
9:36 3 5 mph 1021.7mb 51f 65f
9:30 3 6 mph 1021.7mb 51f 67f
9:24 2 3 mph 1021.8mb 51f 66f
9:18 2 3 mph 1021.9mb 51f 67f
9:12 3 3 mph 1021.9mb 51f 68f
9:06 2 3 mph 1021.9mb 51f 69f
9:00 2 3 mph 1022mb 51f 70f
8:54 2 3 mph 1021.9mb 51f 71f
8:48 2 7 mph 1021.9mb 52f 72f
8:36 2 3 mph 1022mb 51f 73f
8:30 2 3 mph 1022.1mb 52f 70f
8:24 2 3 mph 1022.1mb 52f 71f
8:18 3 6 mph 1022.1mb 52f 71f
8:12 6 8 mph 1022mb 52f 69f
8:06 5 8 mph 1022mb 52f 70f
8:00 6 8 mph 1022mb 52f 70f
7:54 5 7 mph 1021.9mb 52f 69f
7:48 6 9 mph 1021.9mb 52f 70f
7:36 3 6 mph 1022mb 52f 69f
7:30 3 7 mph 1022mb 52f 68f
7:24 6 8 mph 1022mb 52f 68f
7:18 8 9 mph 1022mb 52f 68f
7:12 7 10 mph 1021.9mb 52f 68f
7:06 6 8 mph 1021.9mb 52f 68f
7:00 6 7 mph 1021.8mb 52f 66f
6:54 6 8 mph 1021.7mb 52f 65f
6:36 6 8 mph 1021.6mb 52f 63f
6:30 6 8 mph 1021.7mb 52f 63f
6:24 6 8 mph 1021.6mb 51f 62f
6:18 6 8 mph 1021.6mb 51f 62f
6:12 6 7 mph 1021.6mb 51f 61f
6:06 5 7 mph 1021.5mb 51f 59f
6:00 6 7 mph 1021.5mb 51f 58f
5:54 5 7 mph 1021.4mb 51f 56f
5:48 3 5 mph 1021.4mb 51f 55f
5:36 3 5 mph 1021.4mb 51f 54f
5:30 2 3 mph 1021.3mb 51f 53f
5:24 2 5 mph 1021.4mb 51f 53f
5:18 3 3 mph 1021.4mb 52f 53f
5:12 3 5 mph 1021.4mb 52f 53f
5:06 2 3 mph 1021.5mb 52f 53f
5:00 2 2 mph 1021.4mb 51f 54f
4:54 2 2 mph 1021.4mb 51f 55f
4:48 2 3 mph 1021.4mb 52f 55f
4:36  -  2 mph 1021.2mb 52f 55f
4:30 2 5 mph 1021.2mb 52f 55f
4:24 2 2 mph 1021.1mb 52f 56f
4:18 2 6 mph 1021.1mb 52f 56f
4:12 2 5 mph 1021.1mb 52f 55f
4:06 2 5 mph 1021.1mb 52f 56f
4:00 2 6 mph 1021.1mb 52f 56f
3:54 5 6 mph 1021.1mb 52f 56f
3:48 3 5 mph 1021.1mb 52f 56f
3:36 5 6 mph 1021mb 52f 56f
3:30 1 3 mph 1021.1mb 52f 56f
3:24 5 6 mph 1021mb 52f 57f
3:18 6 8 mph 1021.1mb 52f 58f
3:12 3 8 mph 1020.9mb 52f 56f
3:06 6 8 mph 1020.9mb 52f 56f
3:00 1 6 mph 1021mb 52f 57f
2:54 5 8 mph 1020.9mb 52f 58f
2:48 5 6 mph 1021mb 52f 57f
2:36 2 3 mph 1021mb 52f 56f
2:30  -  3 mph 1021.1mb 52f 56f
2:24 5 6 mph 1021.1mb 52f 56f
2:18 5 6 mph 1021.2mb 52f 57f
2:12 3 6 mph 1021.2mb 52f 57f
2:06 5 7 mph 1021.2mb 52f 57f
2:00 6 7 mph 1021.2mb 51f 56f
1:54 3 6 mph 1021.2mb 51f 57f
1:48 5 8 mph 1021.3mb 51f 57f
1:36 3 6 mph 1021.3mb 51f 56f
1:30 3 6 mph 1021.3mb 51f 56f
1:24 3 6 mph 1021.3mb 51f 57f
1:18 5 7 mph 1021.3mb 50f 56f
1:12 3 7 mph 1021.3mb 50f 56f
1:06 5 7 mph 1021.3mb 50f 57f
1:00 2 7 mph 1021.3mb 50f 58f
12:54 3 6 mph 1021.3mb 50f 59f
12:48 2 6 mph 1021.3mb 50f 59f
12:36 5 6 mph 1021.3mb 50f 57f
12:30 2 6 mph 1021.3mb 50f 57f
12:24 6 6 mph 1021.2mb 50f 58f
12:18 5 6 mph 1021.2mb 50f 57f
12:12 5 6 mph 1021.3mb 50f 57f
12:06 5 6 mph 1021.4mb 50f 58f
12:00 3 5 mph 1021.5mb 51f 59f
ven. 06/23 11:54 3 5 mph 1021.4mb 51f 58f
11:48 5 6 mph 1021.4mb 51f 58f
11:36 6 6 mph 1021.4mb 51f 59f
11:30 6 7 mph 1021.4mb 51f 60f
11:24 5 6 mph 1021.4mb 51f 59f
11:18 5 7 mph 1021.4mb 51f 60f
11:12 6 7 mph 1021.4mb 51f 60f
11:06 5 6 mph 1021.4mb 51f 60f
11:00 6 7 mph 1021.4mb 51f 60f
10:54 5 6 mph 1021.4mb 51f 60f
10:48 3 5 mph 1021.4mb 50f 60f
10:36 2 3 mph 1021.5mb 50f 60f
10:30 3 5 mph 1021.5mb 50f 60f
10:24 2 3 mph 1021.5mb 50f 61f
10:18 1 3 mph 1021.5mb 50f 61f
10:12  -  2 mph 1021.5mb 50f 61f
10:06 2 2 mph 1021.5mb 50f 61f
10:00  -  1 mph 1021.5mb 50f 61f
9:54 3 5 mph 1021.5mb 50f 61f
9:48 5 6 mph 1021.5mb 50f 60f
9:36 6 8 mph 1021.5mb 50f 60f
9:30 6 8 mph 1021.4mb 50f 60f
9:24 7 9 mph 1021.4mb 50f 60f
9:18 7 9 mph 1021.3mb 50f 60f
9:12 8 11 mph 1021.3mb 50f -
9:06 9 10 mph 1021.3mb 51f -
9:00 11 15 mph 1021.2mb 51f -
8:54 10 14 mph 1021.2mb 51f -
8:48 9 13 mph 1021.2mb 51f -
8:36 10 13 mph 1021.2mb 52f -
8:30 11 13 mph 1021.2mb 52f -
8:24 10 13 mph 1021.2mb 52f -
8:18 11 14 mph 1021.2mb 52f -
8:12 10 13 mph 1021.2mb 53f -
8:06 8 11 mph 1021.2mb 53f -
8:00 9 13 mph 1021.3mb 53f -
7:54 10 13 mph 1021.3mb 53f -
7:48 6 13 mph 1021.2mb 53f 71f
7:36 1 2 mph 1021.3mb 53f 74f
7:30 2 3 mph 1021.3mb 53f 73f
7:24 3 3 mph 1021.3mb 53f 73f
7:18 3 3 mph 1021.4mb 52f 73f
7:12 3 3 mph 1021.5mb 53f 73f
7:06 3 3 mph 1021.6mb 53f 73f
7:00 3 3 mph 1021.6mb 53f 73f
6:54 3 5 mph 1021.6mb 53f 73f
6:48 5 5 mph 1021.6mb 52f 71f
6:36 5 6 mph 1021.7mb 52f 71f
6:30 5 5 mph 1021.7mb 52f 71f
6:24 5 5 mph 1021.8mb 52f 71f
6:18 5 5 mph 1021.8mb 52f 71f
6:12 5 5 mph 1021.9mb 52f 71f
6:06 5 6 mph 1021.9mb 52f 70f
6:00 6 6 mph 1021.9mb 51f 70f
5:54 6 7 mph 1021.9mb 51f 69f
5:48 7 7 mph 1022mb 51f 68f
5:36 7 7 mph 1022.1mb 51f 68f
5:30 7 7 mph 1022.2mb 51f 68f
5:24 7 7 mph 1022.2mb 51f 68f
5:18 7 7 mph 1022.2mb 51f 68f
5:12 6 8 mph 1022.2mb 51f 67f
5:06 7 7 mph 1022.3mb 51f 66f
5:00 7 8 mph 1022.4mb 51f 68f
4:54 7 8 mph 1022.5mb 51f 69f
4:48 6 7 mph 1022.5mb 51f 68f
4:36 7 8 mph 1022.5mb 51f 68f
4:30 7 8 mph 1022.6mb 51f 67f
4:24 7 7 mph 1022.6mb 51f 68f
4:18 7 8 mph 1022.7mb 51f 69f
4:12 7 7 mph 1022.8mb 52f 68f
4:06 7 8 mph 1022.8mb 52f 68f
4:00 8 8 mph 1022.8mb 52f 68f
3:54 8 8 mph 1022.9mb 52f 68f
3:48 7 8 mph 1022.9mb 52f 69f
3:36 7 7 mph 1023mb 52f 70f
3:30 6 7 mph 1023mb 52f 69f
3:24 7 7 mph 1023mb 52f 68f
3:18 7 8 mph 1023mb 52f 67f
3:12 7 7 mph 1023.1mb 52f 66f
3:06 7 7 mph 1023.2mb 52f 66f
3:00 6 6 mph 1023.2mb 52f 65f
2:54 6 6 mph 1023.2mb 52f 65f
2:48 6 6 mph 1023.2mb 52f 65f
2:36 6 6 mph 1023.4mb 53f 65f
2:30 6 6 mph 1023.4mb 53f 67f
2:24 6 6 mph 1023.5mb 53f 67f
2:18 6 6 mph 1023.5mb 53f 66f
2:12 5 6 mph 1023.5mb 52f 65f
2:06 6 6 mph 1023.5mb 52f 65f
2:00 5 6 mph 1023.6mb 52f 66f
1:54 5 6 mph 1023.6mb 52f 68f
1:48 6 6 mph 1023.6mb 52f 67f
1:36 6 6 mph 1023.7mb 52f 65f
1:30 6 7 mph 1023.7mb 52f 65f
1:24 6 7 mph 1023.8mb 52f 66f
1:18 6 7 mph 1023.8mb 52f 68f
1:12 6 7 mph 1023.9mb 52f 67f
1:06 7 7 mph 1023.9mb 52f 67f
1:00 7 8 mph 1024mb 52f 66f
12:54 7 8 mph 1024mb 53f 66f
12:48 8 8 mph 1024mb 53f 65f
12:36 8 8 mph 1023.9mb 53f 65f
12:30 7 7 mph 1023.9mb 53f 66f